Time;durP1;ratioP1;P1;durP2;ratioP2;P2;SDS_P1;SDS_P2;PMS_P1;PMS_P2;Temp;Humidity;BMP_temperature;BMP_pressure;BME280_temperature;BME280_humidity;BME280_pressure;Samples;Min_cycle;Max_cycle;Signal;HPM_P1;HPM_P2
2022/04/06 00:00:21;;;;;;;29.88;11.07;;;8.70;99.90;;;;;;5084777;28;20034;-70
2022/04/06 00:02:47;;;;;;;25.52;11.55;;;8.80;99.90;;;;;;5062112;28;20052;-71
2022/04/06 00:05:13;;;;;;;29.20;11.57;;;8.80;99.90;;;;;;5067520;28;20078;-71
2022/04/06 00:07:43;;;;;;;33.35;12.15;;;8.80;99.90;;;;;;5062602;28;20384;-71
2022/04/06 00:10:10;;;;;;;30.15;12.23;;;8.80;99.90;;;;;;5052112;28;20043;-71
2022/04/06 00:12:37;;;;;;;28.23;11.10;;;8.80;99.90;;;;;;5071635;28;20029;-71
2022/04/06 00:15:05;;;;;;;27.92;11.70;;;8.80;99.90;;;;;;5055619;28;20036;-71
2022/04/06 00:17:31;;;;;;;29.17;12.32;;;8.80;99.90;;;;;;5058412;28;20041;-70
2022/04/06 00:19:56;;;;;;;27.92;11.98;;;8.80;99.90;;;;;;5037561;28;20029;-71
2022/04/06 00:22:22;;;;;;;28.00;12.80;;;8.80;99.90;;;;;;5069072;28;20021;-70
2022/04/06 00:24:48;;;;;;;27.20;13.50;;;8.80;99.90;;;;;;5054765;28;20045;-70
2022/04/06 00:27:14;;;;;;;31.92;13.05;;;8.80;99.90;;;;;;5048778;28;20034;-71
2022/04/06 00:29:40;;;;;;;33.70;14.32;;;8.80;99.90;;;;;;5042176;28;20033;-70
2022/04/06 00:32:06;;;;;;;26.80;14.68;;;8.80;99.90;;;;;;5061687;28;20036;-70
2022/04/06 00:37:16;;;;;;;28.35;15.40;;;8.90;99.90;;;;;;5060106;28;20074;-71
2022/04/06 00:39:42;;;;;;;31.90;15.90;;;8.80;99.90;;;;;;5061614;28;20036;-71
2022/04/06 00:42:08;;;;;;;34.22;14.70;;;8.80;99.90;;;;;;5048098;28;20129;-71
2022/04/06 00:44:34;;;;;;;29.80;14.18;;;8.80;99.90;;;;;;5054645;28;20097;-71
2022/04/06 00:47:05;;;;;;;35.97;15.82;;;8.80;99.90;;;;;;5054662;28;20044;-71
2022/04/06 00:49:32;;;;;;;27.70;13.75;;;8.80;99.90;;;;;;5056453;28;20033;-71
2022/04/06 00:52:00;;;;;;;28.83;15.38;;;8.90;99.90;;;;;;5058999;28;20028;-71
2022/04/06 00:54:27;;;;;;;27.48;13.70;;;8.80;99.90;;;;;;5047458;28;20029;-71
2022/04/06 00:56:53;;;;;;;30.75;14.63;;;8.90;99.90;;;;;;5061262;28;20024;-71
2022/04/06 00:59:19;;;;;;;31.77;14.57;;;8.80;99.90;;;;;;5075189;28;20040;-72
2022/04/06 01:01:46;;;;;;;32.15;14.32;;;8.80;99.90;;;;;;5053303;28;20041;-71
2022/04/06 01:04:17;;;;;;;29.80;13.55;;;8.80;99.90;;;;;;5056858;28;20045;-71
2022/04/06 01:06:44;;;;;;;27.92;13.73;;;8.80;99.90;;;;;;5061946;28;20522;-71
2022/04/06 01:09:10;;;;;;;37.58;14.65;;;8.80;99.90;;;;;;5056335;28;20087;-70
2022/04/06 01:11:36;;;;;;;27.63;12.98;;;8.80;99.90;;;;;;5056736;28;20403;-71
2022/04/06 01:14:02;;;;;;;35.60;14.13;;;8.80;99.90;;;;;;5062954;28;20036;-71
2022/04/06 01:16:29;;;;;;;27.25;13.15;;;8.80;99.90;;;;;;5055711;28;20036;-71
2022/04/06 01:18:55;;;;;;;25.05;12.35;;;8.80;99.90;;;;;;5052616;28;20155;-71
2022/04/06 01:21:21;;;;;;;27.73;12.93;;;8.80;99.90;;;;;;5048314;28;20403;-71
2022/04/06 01:23:47;;;;;;;27.58;13.60;;;8.80;99.90;;;;;;5052391;28;20082;-71
2022/04/06 01:26:13;;;;;;;28.88;14.02;;;8.80;99.90;;;;;;5062150;28;20087;-70
2022/04/06 01:28:40;;;;;;;34.20;13.00;;;8.80;99.90;;;;;;5061529;28;20024;-71
2022/04/06 01:31:07;;;;;;;30.75;12.77;;;8.80;99.90;;;;;;5055649;28;20021;-71
2022/04/06 01:33:32;;;;;;;28.88;12.43;;;8.90;99.90;;;;;;5051993;28;20041;-71
2022/04/06 01:36:00;;;;;;;25.20;12.65;;;8.90;99.90;;;;;;5059741;28;20031;-71
2022/04/06 01:38:26;;;;;;;28.85;11.85;;;8.80;99.90;;;;;;5057551;28;20064;-71
2022/04/06 01:40:53;;;;;;;26.63;11.45;;;8.90;99.90;;;;;;5045323;28;20411;-70
2022/04/06 01:43:19;;;;;;;23.52;11.75;;;8.80;99.90;;;;;;5057641;28;20028;-71
2022/04/06 01:45:45;;;;;;;26.33;11.10;;;8.90;99.90;;;;;;5059344;28;20029;-70
2022/04/06 01:48:13;;;;;;;23.52;11.73;;;8.90;99.90;;;;;;5059003;28;20468;-71
2022/04/06 01:53:22;;;;;;;25.23;11.73;;;8.90;99.90;;;;;;5059838;28;20047;-71
2022/04/06 01:55:48;;;;;;;27.10;11.20;;;8.80;99.90;;;;;;5083110;28;20029;-70
2022/04/06 01:58:14;;;;;;;22.83;11.25;;;8.80;99.90;;;;;;5065530;28;20109;-71
2022/04/06 02:00:40;;;;;;;32.33;12.75;;;8.80;99.90;;;;;;5057947;28;20079;-71
2022/04/06 02:03:06;;;;;;;27.88;10.95;;;8.80;99.90;;;;;;5059825;28;20144;-71
2022/04/06 02:05:35;;;;;;;24.05;10.90;;;8.90;99.90;;;;;;5058178;28;20056;-71
2022/04/06 02:08:01;;;;;;;22.45;10.13;;;8.90;99.90;;;;;;5062754;28;20025;-71
2022/04/06 02:10:27;;;;;;;23.90;10.60;;;8.90;99.90;;;;;;5055007;28;20032;-71
2022/04/06 02:12:57;;;;;;;26.42;10.07;;;8.90;99.90;;;;;;5057604;28;20037;-70
2022/04/06 02:15:24;;;;;;;22.05;9.57;;;8.90;99.90;;;;;;5043141;28;20120;-70
2022/04/06 02:17:50;;;;;;;19.02;9.45;;;8.80;99.90;;;;;;5059955;28;20025;-71
2022/04/06 02:20:16;;;;;;;21.95;9.02;;;8.80;99.90;;;;;;5051019;28;20045;-70
2022/04/06 02:22:42;;;;;;;24.98;9.20;;;8.80;99.90;;;;;;5050308;28;20058;-70
2022/04/06 02:25:09;;;;;;;24.08;9.38;;;8.80;99.90;;;;;;5058889;28;20534;-71
2022/04/06 02:27:53;;;;;;;23.80;8.80;;;8.80;99.90;;;;;;5060630;28;20024;-70
2022/04/06 02:30:20;;;;;;;23.80;8.27;;;8.80;99.90;;;;;;5061698;28;20028;-70
2022/04/06 02:32:46;;;;;;;21.88;8.48;;;8.80;99.90;;;;;;5037959;28;20052;-70
2022/04/06 02:35:13;;;;;;;18.30;8.27;;;8.80;99.90;;;;;;5059131;28;20120;-70
2022/04/06 02:37:44;;;;;;;21.98;7.85;;;8.80;99.90;;;;;;5061397;28;20036;-70
2022/04/06 02:40:11;;;;;;;18.70;7.37;;;8.80;99.90;;;;;;5057833;28;20045;-70
2022/04/06 02:42:37;;;;;;;20.05;6.95;;;8.80;99.90;;;;;;5055479;28;20028;-70
2022/04/06 02:45:03;;;;;;;20.95;6.90;;;8.80;99.90;;;;;;5056915;28;20055;-70
2022/04/06 02:47:28;;;;;;;20.52;7.22;;;8.80;99.90;;;;;;5067268;28;20088;-69
2022/04/06 02:49:54;;;;;;;18.15;7.10;;;8.90;99.90;;;;;;5050460;28;20083;-70
2022/04/06 02:52:20;;;;;;;22.00;7.35;;;8.80;99.90;;;;;;5052644;28;20021;-70
2022/04/06 02:54:45;;;;;;;25.73;8.75;;;8.80;99.90;;;;;;5052102;28;20587;-70
2022/04/06 02:57:11;;;;;;;24.38;8.70;;;8.80;99.90;;;;;;5068703;28;20028;-71
2022/04/06 02:59:39;;;;;;;28.30;9.00;;;8.80;99.90;;;;;;5060645;28;20029;-70
2022/04/06 03:02:05;;;;;;;22.70;8.98;;;8.80;99.90;;;;;;5038312;28;20049;-70
2022/04/06 03:04:30;;;;;;;26.33;8.68;;;8.80;99.90;;;;;;5057241;28;20109;-70
2022/04/06 03:06:56;;;;;;;28.30;8.80;;;8.80;99.90;;;;;;5054497;28;20026;-70
2022/04/06 03:09:22;;;;;;;32.92;9.68;;;8.80;99.90;;;;;;5048119;28;20045;-70
2022/04/06 03:11:47;;;;;;;29.90;9.65;;;8.80;99.90;;;;;;5043810;28;20032;-70
2022/04/06 03:14:13;;;;;;;31.50;10.02;;;8.80;99.90;;;;;;5058525;28;20037;-70
2022/04/06 03:16:38;;;;;;;28.52;9.82;;;8.70;99.90;;;;;;5063373;28;20028;-70
2022/04/06 03:19:05;;;;;;;27.42;9.82;;;8.80;99.90;;;;;;5065801;28;20021;-70
2022/04/06 03:21:31;;;;;;;31.00;9.70;;;8.80;99.90;;;;;;5057931;28;20051;-70
2022/04/06 03:23:57;;;;;;;33.10;10.18;;;8.80;99.90;;;;;;5054905;28;20036;-71
2022/04/06 03:26:23;;;;;;;29.08;9.07;;;8.80;99.90;;;;;;5046923;28;20025;-70
2022/04/06 03:28:48;;;;;;;30.65;11.10;;;8.80;99.90;;;;;;5058807;28;20055;-70
2022/04/06 03:31:14;;;;;;;32.30;11.57;;;8.80;99.90;;;;;;5058637;28;20034;-70
2022/04/06 03:33:40;;;;;;;32.08;11.25;;;8.90;99.90;;;;;;5063370;28;20039;-70
2022/04/06 03:36:05;;;;;;;26.40;10.75;;;8.90;99.90;;;;;;5054935;28;20043;-70
2022/04/06 03:38:31;;;;;;;32.70;11.88;;;8.90;99.90;;;;;;5055158;28;20114;-70
2022/04/06 03:40:57;;;;;;;36.17;12.80;;;8.90;99.90;;;;;;5057196;28;20032;-70
2022/04/06 03:43:23;;;;;;;37.92;13.38;;;8.90;99.90;;;;;;5064134;28;20085;-70
2022/04/06 03:45:48;;;;;;;33.80;12.52;;;8.90;99.90;;;;;;5080386;28;20037;-69
2022/04/06 03:48:14;;;;;;;34.63;12.27;;;8.90;99.90;;;;;;5057980;28;20033;-68
2022/04/06 03:50:40;;;;;;;31.55;11.75;;;8.90;99.90;;;;;;5063898;28;20032;-68
2022/04/06 03:53:06;;;;;;;34.13;12.48;;;9.00;99.90;;;;;;5067428;28;20054;-69
2022/04/06 03:55:31;;;;;;;30.70;12.07;;;9.00;99.90;;;;;;5045917;28;20026;-69
2022/04/06 03:57:57;;;;;;;27.55;12.48;;;9.00;99.90;;;;;;5056954;28;20025;-69
2022/04/06 04:00:23;;;;;;;31.00;12.48;;;9.00;99.90;;;;;;5058007;28;20052;-69
2022/04/06 04:02:48;;;;;;;35.50;12.57;;;9.00;99.90;;;;;;5067687;28;20060;-69
2022/04/06 04:05:15;;;;;;;34.60;12.38;;;9.00;99.90;;;;;;5055650;28;20032;-69
2022/04/06 04:07:43;;;;;;;29.05;11.45;;;8.90;99.90;;;;;;5050197;28;20040;-69
2022/04/06 04:10:09;;;;;;;33.28;12.50;;;9.00;99.90;;;;;;5055989;28;20380;-69
2022/04/06 04:12:36;;;;;;;27.75;11.25;;;9.00;99.90;;;;;;5064744;28;20369;-69
2022/04/06 04:15:03;;;;;;;30.17;11.93;;;9.00;99.90;;;;;;5063112;28;20044;-69
2022/04/06 04:17:28;;;;;;;33.17;12.40;;;9.00;99.90;;;;;;5061743;28;20025;-69
2022/04/06 04:19:54;;;;;;;31.10;11.13;;;9.00;99.90;;;;;;5058716;28;20097;-69
2022/04/06 04:22:19;;;;;;;26.67;10.60;;;9.00;99.90;;;;;;5060614;28;20028;-69
2022/04/06 04:24:45;;;;;;;28.25;10.32;;;9.00;99.90;;;;;;5061121;28;20037;-69
2022/04/06 04:27:11;;;;;;;32.40;10.88;;;9.00;99.90;;;;;;5042283;28;20081;-69
2022/04/06 04:29:36;;;;;;;28.02;9.88;;;9.00;99.90;;;;;;5061467;28;20029;-69
2022/04/06 04:32:02;;;;;;;27.88;10.30;;;8.90;99.90;;;;;;5044940;28;20033;-69
2022/04/06 04:34:28;;;;;;;27.77;9.68;;;8.90;99.90;;;;;;5069738;28;20051;-69
2022/04/06 04:36:54;;;;;;;25.33;9.05;;;8.90;99.90;;;;;;5057168;28;20025;-69
2022/04/06 04:39:20;;;;;;;21.70;9.20;;;8.90;99.90;;;;;;5059651;28;20038;-69
2022/04/06 04:41:47;;;;;;;22.75;8.52;;;8.90;99.90;;;;;;5058543;28;20040;-69
2022/04/06 04:44:13;;;;;;;24.05;8.27;;;8.90;99.90;;;;;;5056920;28;20025;-69
2022/04/06 04:46:39;;;;;;;18.33;7.40;;;8.90;99.90;;;;;;5062274;28;20028;-68
2022/04/06 04:49:04;;;;;;;18.08;7.32;;;8.90;99.90;;;;;;5054581;28;20159;-69
2022/04/06 04:51:30;;;;;;;20.38;6.90;;;8.90;99.90;;;;;;5061973;28;20080;-69
2022/04/06 04:53:58;;;;;;;18.90;6.78;;;8.90;99.90;;;;;;5046908;28;20033;-69
2022/04/06 04:56:25;;;;;;;20.83;6.22;;;8.80;99.90;;;;;;5019726;28;20541;-70
2022/04/06 04:58:51;;;;;;;14.63;6.28;;;8.80;99.90;;;;;;5050682;28;20048;-70
2022/04/06 05:01:17;;;;;;;19.77;5.90;;;8.80;99.90;;;;;;5057107;28;21973;-69
2022/04/06 05:03:43;;;;;;;14.95;5.57;;;8.80;99.90;;;;;;5050363;28;20432;-69
2022/04/06 05:06:08;;;;;;;20.40;6.88;;;8.80;99.90;;;;;;5053186;28;20044;-70
2022/04/06 05:08:34;;;;;;;21.60;6.75;;;8.80;99.90;;;;;;5061741;28;20032;-69
2022/04/06 05:11:00;;;;;;;19.25;5.45;;;8.80;99.90;;;;;;5061643;28;20050;-70
2022/04/06 05:13:25;;;;;;;17.95;5.07;;;8.80;99.90;;;;;;5064186;28;20369;-69
2022/04/06 05:15:51;;;;;;;18.55;6.32;;;8.80;99.90;;;;;;5063945;28;20021;-69
2022/04/06 05:18:17;;;;;;;17.05;5.25;;;8.80;99.90;;;;;;5058674;28;20358;-69
2022/04/06 05:20:42;;;;;;;16.35;5.57;;;8.70;99.90;;;;;;5045563;28;20049;-70
2022/04/06 05:23:08;;;;;;;18.15;5.63;;;8.70;99.90;;;;;;5060424;28;20611;-70
2022/04/06 05:25:34;;;;;;;20.45;6.03;;;8.70;99.90;;;;;;5069855;28;20096;-70
2022/04/06 05:28:00;;;;;;;16.02;6.07;;;8.70;99.90;;;;;;5061112;28;20040;-70
2022/04/06 05:30:27;;;;;;;14.93;5.70;;;8.70;99.90;;;;;;5065956;28;20025;-70
2022/04/06 05:32:55;;;;;;;16.88;5.53;;;8.70;99.90;;;;;;5063844;28;20025;-70
2022/04/06 05:35:22;;;;;;;14.98;5.20;;;8.70;99.90;;;;;;5065576;28;20088;-70
2022/04/06 05:37:48;;;;;;;21.27;6.50;;;8.70;99.90;;;;;;5057654;28;20033;-70
2022/04/06 05:40:16;;;;;;;15.32;5.85;;;8.70;99.90;;;;;;5062468;28;20048;-70
2022/04/06 05:42:41;;;;;;;15.75;5.60;;;8.70;99.90;;;;;;5059754;28;20468;-71
2022/04/06 05:45:08;;;;;;;17.77;6.22;;;8.70;99.90;;;;;;5062881;28;20037;-71
2022/04/06 05:47:35;;;;;;;17.92;5.88;;;8.70;99.90;;;;;;5068774;28;20124;-71
2022/04/06 05:50:01;;;;;;;13.50;5.60;;;8.70;99.90;;;;;;5061947;28;20105;-71
2022/04/06 05:52:27;;;;;;;20.33;6.18;;;8.70;99.90;;;;;;5066070;28;20024;-71
2022/04/06 05:54:53;;;;;;;19.70;5.80;;;8.70;99.90;;;;;;5083867;28;20040;-71
2022/04/06 05:57:19;;;;;;;16.10;5.25;;;8.70;99.90;;;;;;5050140;28;20049;-71
2022/04/06 05:59:45;;;;;;;14.75;5.28;;;8.70;99.90;;;;;;5066108;28;20094;-71
2022/04/06 06:02:11;;;;;;;17.63;5.40;;;8.70;99.90;;;;;;5051350;28;20044;-71
2022/04/06 06:04:40;;;;;;;17.92;5.53;;;8.70;99.90;;;;;;5045876;28;20085;-71
2022/04/06 06:07:07;;;;;;;18.10;4.82;;;8.70;99.90;;;;;;5064259;28;20537;-71
2022/04/06 06:09:33;;;;;;;16.92;5.47;;;8.60;99.90;;;;;;5054429;28;20097;-71
2022/04/06 06:11:59;;;;;;;18.98;6.93;;;8.70;99.90;;;;;;5057215;28;20033;-71
2022/04/06 06:14:26;;;;;;;20.77;6.72;;;8.70;99.90;;;;;;5060824;28;20024;-71
2022/04/06 06:16:52;;;;;;;17.20;5.57;;;8.60;99.90;;;;;;5054001;28;20029;-71
2022/04/06 06:19:17;;;;;;;16.33;5.03;;;8.60;99.90;;;;;;5049260;28;20051;-70
2022/04/06 06:21:44;;;;;;;15.63;4.82;;;8.60;99.90;;;;;;5063337;28;20040;-70
2022/04/06 06:24:09;;;;;;;17.20;4.80;;;8.60;99.90;;;;;;5063185;28;20059;-71
2022/04/06 06:26:36;;;;;;;17.42;5.03;;;8.60;99.90;;;;;;5057717;28;20029;-71
2022/04/06 06:29:03;;;;;;;14.00;4.97;;;8.70;99.90;;;;;;5068539;28;20065;-71
2022/04/06 06:31:28;;;;;;;17.13;4.60;;;8.60;99.90;;;;;;5058308;28;21064;-71
2022/04/06 06:33:58;;;;;;;12.68;4.18;;;8.70;99.90;;;;;;5043557;28;20683;-70
2022/04/06 06:36:24;;;;;;;13.45;3.88;;;8.60;99.90;;;;;;5060591;28;20427;-71
2022/04/06 06:38:51;;;;;;;13.55;4.15;;;8.60;99.90;;;;;;5077727;28;20083;-71
2022/04/06 06:41:18;;;;;;;15.10;4.13;;;8.60;99.90;;;;;;5066679;28;20045;-71
2022/04/06 06:43:44;;;;;;;12.80;3.75;;;8.60;99.90;;;;;;5053131;28;20701;-71
2022/04/06 06:46:11;;;;;;;10.63;3.60;;;8.60;99.90;;;;;;5082608;28;20029;-71
2022/04/06 06:48:37;;;;;;;13.07;3.92;;;8.60;99.90;;;;;;5040166;28;20025;-71
2022/04/06 06:51:03;;;;;;;14.10;3.60;;;8.60;99.90;;;;;;5061106;28;20021;-71
2022/04/06 06:53:29;;;;;;;16.63;3.75;;;8.60;99.90;;;;;;5056194;28;20100;-71
2022/04/06 06:55:55;;;;;;;11.40;3.15;;;8.60;99.90;;;;;;5045723;28;20033;-71
2022/04/06 06:58:20;;;;;;;12.73;3.40;;;8.60;99.90;;;;;;5067128;28;20421;-71
2022/04/06 07:00:46;;;;;;;13.70;3.50;;;8.70;99.90;;;;;;5068975;28;20504;-71
2022/04/06 07:03:12;;;;;;;13.23;3.45;;;8.70;99.90;;;;;;5042418;28;20132;-70
2022/04/06 07:05:37;;;;;;;15.38;4.15;;;8.70;99.90;;;;;;5058054;28;20028;-71
2022/04/06 07:08:03;;;;;;;13.98;3.47;;;8.70;99.90;;;;;;5068080;28;20059;-71
2022/04/06 07:10:29;;;;;;;16.67;4.68;;;8.80;99.90;;;;;;5073249;28;20093;-71
2022/04/06 07:12:56;;;;;;;14.45;3.95;;;8.80;99.90;;;;;;5071455;28;20013;-71
2022/04/06 07:15:22;;;;;;;16.70;4.22;;;8.80;99.90;;;;;;5057589;28;20029;-71
2022/04/06 07:17:58;;;;;;;13.85;4.20;;;8.80;99.90;;;;;;5083534;28;20021;-71
2022/04/06 07:20:30;;;;;;;21.25;4.43;;;8.80;99.90;;;;;;5073044;28;20094;-71
2022/04/06 07:22:56;;;;;;;13.35;4.20;;;8.90;99.90;;;;;;5072459;28;20017;-71
2022/04/06 07:25:22;;;;;;;16.42;4.53;;;8.90;99.90;;;;;;5055849;28;20029;-71
2022/04/06 07:27:48;;;;;;;15.27;3.55;;;8.80;99.90;;;;;;5062167;28;20033;-71
2022/04/06 07:30:15;;;;;;;18.70;4.68;;;8.80;99.90;;;;;;5039454;28;20030;-71
2022/04/06 07:32:41;;;;;;;14.50;4.63;;;8.80;99.90;;;;;;5064743;28;20036;-71
2022/04/06 07:35:07;;;;;;;16.33;4.25;;;8.80;99.90;;;;;;5059432;28;20035;-70
2022/04/06 07:37:37;;;;;;;16.13;4.00;;;8.80;99.90;;;;;;5062286;28;20058;-71
2022/04/06 07:40:04;;;;;;;14.98;4.40;;;8.80;99.90;;;;;;5061282;28;20086;-71
2022/04/06 07:42:29;;;;;;;13.43;4.10;;;8.80;99.90;;;;;;5063443;28;20032;-71
2022/04/06 07:44:56;;;;;;;14.57;4.40;;;8.90;99.90;;;;;;5057500;28;20021;-71
2022/04/06 07:47:27;;;;;;;17.33;5.05;;;8.90;99.90;;;;;;5043373;28;20040;-71
2022/04/06 07:49:57;;;;;;;14.05;4.18;;;8.90;99.90;;;;;;5043684;28;20029;-71
2022/04/06 07:52:24;;;;;;;14.93;5.00;;;8.80;99.90;;;;;;5061176;28;20036;-71
2022/04/06 07:54:50;;;;;;;14.35;4.40;;;8.90;99.90;;;;;;5077022;28;20173;-71
2022/04/06 07:57:15;;;;;;;14.65;5.05;;;9.00;99.90;;;;;;5040802;28;20026;-71
2022/04/06 07:59:41;;;;;;;19.48;5.00;;;9.00;99.90;;;;;;5058399;28;20074;-71
2022/04/06 08:02:06;;;;;;;11.02;4.38;;;9.10;99.90;;;;;;5054665;28;20041;-71
2022/04/06 08:04:32;;;;;;;19.88;5.45;;;9.20;99.90;;;;;;5041522;28;20046;-71
2022/04/06 08:06:58;;;;;;;15.60;5.47;;;9.20;99.90;;;;;;5055080;28;20033;-71
2022/04/06 08:09:24;;;;;;;15.80;5.32;;;9.20;99.90;;;;;;5045101;28;20037;-71
2022/04/06 08:11:50;;;;;;;15.38;4.97;;;9.10;99.90;;;;;;5069599;28;20025;-70
2022/04/06 08:14:15;;;;;;;15.68;5.50;;;9.10;99.90;;;;;;5070504;28;20033;-71
2022/04/06 08:16:41;;;;;;;16.08;5.55;;;9.20;99.90;;;;;;5052477;28;20044;-71
2022/04/06 08:19:07;;;;;;;13.73;5.55;;;9.20;99.90;;;;;;5047140;28;20049;-70
2022/04/06 08:21:32;;;;;;;17.77;5.80;;;9.20;99.90;;;;;;5047981;28;20033;-70
2022/04/06 08:23:58;;;;;;;20.77;6.55;;;9.10;99.90;;;;;;5061058;28;20076;-71
2022/04/06 08:26:24;;;;;;;17.35;6.10;;;9.10;99.90;;;;;;5059021;28;20033;-71
2022/04/06 08:28:49;;;;;;;17.90;6.18;;;9.10;99.90;;;;;;5039647;28;20029;-71
2022/04/06 08:31:15;;;;;;;16.67;5.82;;;9.20;99.90;;;;;;5043307;28;20064;-71
2022/04/06 08:33:41;;;;;;;14.98;5.43;;;9.20;99.90;;;;;;5060713;28;20036;-71
2022/04/06 08:36:09;;;;;;;15.90;6.07;;;9.20;99.90;;;;;;5061808;28;20345;-71
2022/04/06 08:38:34;;;;;;;18.55;6.28;;;9.20;99.90;;;;;;5078197;28;20090;-72
2022/04/06 08:41:00;;;;;;;17.80;5.80;;;9.20;99.90;;;;;;5055678;28;20404;-72
2022/04/06 08:43:26;;;;;;;16.10;5.32;;;9.20;99.90;;;;;;5053089;28;20037;-72
2022/04/06 08:45:53;;;;;;;15.25;5.00;;;9.10;99.90;;;;;;5051499;28;20042;-72
2022/04/06 08:48:20;;;;;;;18.27;6.07;;;9.10;99.90;;;;;;5062280;28;20017;-72
2022/04/06 08:50:47;;;;;;;16.33;5.38;;;9.10;99.90;;;;;;5069810;28;20036;-72
2022/04/06 08:53:13;;;;;;;15.77;5.43;;;9.10;99.90;;;;;;5076494;28;20024;-72
2022/04/06 08:55:38;;;;;;;18.35;5.78;;;9.10;99.90;;;;;;5049986;28;20033;-72
2022/04/06 08:58:04;;;;;;;16.02;4.93;;;9.00;99.90;;;;;;5058104;28;20024;-72
2022/04/06 09:00:31;;;;;;;14.30;4.72;;;9.00;99.90;;;;;;5064498;28;20059;-72
2022/04/06 09:02:58;;;;;;;18.08;5.10;;;9.00;99.90;;;;;;5056859;28;20033;-70
2022/04/06 09:05:28;;;;;;;14.98;4.97;;;9.00;99.90;;;;;;5031873;28;20092;-72
2022/04/06 09:07:55;;;;;;;14.18;4.50;;;9.10;99.90;;;;;;5044597;28;20031;-72
2022/04/06 09:10:35;;;;;;;15.73;4.63;;;9.20;99.90;;;;;;5048883;28;20067;-72
2022/04/06 09:13:20;;;;;;;15.20;4.75;;;9.20;99.90;;;;;;5046253;28;20052;-72
2022/04/06 09:15:47;;;;;;;15.35;4.43;;;9.30;99.90;;;;;;5048251;28;20053;-72
2022/04/06 09:18:13;;;;;;;13.80;4.65;;;9.40;99.90;;;;;;5047386;28;20032;-73
2022/04/06 09:20:39;;;;;;;9.77;4.32;;;9.50;99.90;;;;;;5058090;28;20106;-73
2022/04/06 09:23:06;;;;;;;12.10;4.00;;;10.00;99.90;;;;;;5062244;28;20025;-73
2022/04/06 09:25:37;;;;;;;12.98;4.07;;;10.10;99.90;;;;;;5055050;28;20036;-73
2022/04/06 09:28:16;;;;;;;17.75;4.25;;;10.30;99.90;;;;;;5058160;28;20051;-73
2022/04/06 09:30:45;;;;;;;10.27;4.43;;;10.30;99.90;;;;;;5046844;28;20029;-72
2022/04/06 09:33:18;;;;;;;12.98;4.05;;;10.10;99.90;;;;;;5031916;28;20050;-71
2022/04/06 09:35:44;;;;;;;15.25;4.97;;;10.10;99.90;;;;;;5050255;28;20052;-72
2022/04/06 09:38:22;;;;;;;11.20;4.10;;;10.10;99.90;;;;;;5052991;28;20100;-72
2022/04/06 09:40:51;;;;;;;9.98;4.55;;;10.10;99.90;;;;;;5039995;28;20037;-72
2022/04/06 09:43:33;;;;;;;11.23;4.35;;;10.00;99.90;;;;;;5041295;28;20037;-71
2022/04/06 09:49:10;;;;;;;14.88;5.00;;;9.90;99.90;;;;;;5040084;28;20163;-72
2022/04/06 09:51:40;;;;;;;18.20;5.60;;;10.00;99.90;;;;;;5039761;28;20017;-72
2022/04/06 09:54:07;;;;;;;15.15;5.85;;;10.00;99.90;;;;;;5039570;28;20021;-72
2022/04/06 09:56:35;;;;;;;16.02;6.25;;;10.10;99.90;;;;;;5056915;28;20052;-71
2022/04/06 09:59:02;;;;;;;14.38;5.75;;;10.10;99.90;;;;;;5054121;28;20485;-71
2022/04/06 10:01:36;;;;;;;17.10;6.10;;;10.10;99.90;;;;;;5040108;28;20033;-71
2022/04/06 10:04:11;;;;;;;15.57;6.22;;;10.20;99.90;;;;;;5039499;28;20071;-71
2022/04/06 10:06:38;;;;;;;17.30;6.65;;;10.20;99.90;;;;;;5052413;28;20112;-71
2022/04/06 10:09:07;;;;;;;15.07;6.53;;;10.30;99.90;;;;;;5058077;28;20033;-72
2022/04/06 10:11:39;;;;;;;17.92;6.35;;;10.30;99.90;;;;;;5060064;28;20435;-71
2022/04/06 10:14:07;;;;;;;12.40;6.90;;;10.40;99.90;;;;;;5060568;28;20485;-72
2022/04/06 10:16:36;;;;;;;18.40;6.35;;;10.50;99.90;;;;;;5038663;28;20072;-71
2022/04/06 10:19:03;;;;;;;17.02;6.93;;;10.60;99.90;;;;;;5035444;28;20033;-71
2022/04/06 10:21:48;;;;;;;15.52;6.97;;;10.60;99.90;;;;;;5040682;28;20148;-71
2022/04/06 10:24:26;;;;;;;15.50;6.70;;;10.60;99.90;;;;;;5048221;28;20108;-71
2022/04/06 10:27:08;;;;;;;15.23;6.53;;;10.60;99.90;;;;;;5040147;28;20030;-71
2022/04/06 10:30:06;;;;;;;17.35;6.72;;;10.60;99.90;;;;;;5056329;28;20033;-71
2022/04/06 10:32:43;;;;;;;16.33;6.60;;;10.60;99.90;;;;;;5057969;28;20045;-71
2022/04/06 10:35:31;;;;;;;14.80;6.35;;;10.60;99.90;;;;;;5059476;28;20029;-70
2022/04/06 10:37:58;;;;;;;15.77;7.03;;;10.50;99.90;;;;;;5044661;28;20029;-71
2022/04/06 10:40:24;;;;;;;17.42;6.75;;;10.40;99.90;;;;;;5043754;28;20041;-70
2022/04/06 10:42:50;;;;;;;10.98;6.20;;;10.40;99.90;;;;;;5059299;28;20033;-70
2022/04/06 10:45:28;;;;;;;14.05;6.57;;;10.30;99.90;;;;;;5057985;28;20021;-71
2022/04/06 10:48:15;;;;;;;25.80;7.05;;;10.30;99.90;;;;;;5063200;28;20028;-71
2022/04/06 10:50:42;;;;;;;15.27;6.55;;;10.30;99.90;;;;;;5062844;28;20044;-71
2022/04/06 10:53:23;;;;;;;19.75;7.75;;;10.30;99.90;;;;;;5045264;28;20021;-70
2022/04/06 10:56:17;;;;;;;16.52;7.80;;;10.30;99.90;;;;;;5062974;28;20051;-71
2022/04/06 10:59:01;;;;;;;17.10;6.70;;;10.30;99.90;;;;;;5057701;28;20069;-70
2022/04/06 11:01:29;;;;;;;19.75;7.10;;;10.30;99.90;;;;;;5063657;28;20104;-69
2022/04/06 11:03:59;;;;;;;16.45;7.80;;;10.20;99.90;;;;;;5064101;28;20021;-71
2022/04/06 11:06:44;;;;;;;16.10;8.02;;;10.20;99.90;;;;;;5062555;28;20068;-72
2022/04/06 11:12:21;;;;;;;15.45;8.52;;;10.20;99.90;;;;;;5060778;28;20043;-71
2022/04/06 11:14:49;;;;;;;16.25;8.40;;;10.20;99.90;;;;;;5057895;28;20052;-72
2022/04/06 11:17:42;;;;;;;19.05;9.10;;;10.20;99.90;;;;;;5053235;28;20027;-72
2022/04/06 11:20:17;;;;;;;15.38;8.45;;;10.20;99.90;;;;;;5050117;28;20025;-71
2022/04/06 11:22:53;;;;;;;20.65;9.07;;;10.10;99.90;;;;;;5057162;28;20056;-71
2022/04/06 11:25:21;;;;;;;16.23;8.10;;;10.10;99.90;;;;;;5059036;28;20028;-73
2022/04/06 11:27:49;;;;;;;21.63;8.80;;;10.10;99.90;;;;;;5053502;28;20072;-72
2022/04/06 11:30:19;;;;;;;15.52;9.07;;;10.10;99.90;;;;;;5065878;28;20029;-72
2022/04/06 11:32:57;;;;;;;22.23;9.38;;;10.20;99.90;;;;;;5066699;28;20025;-72
2022/04/06 11:35:31;;;;;;;19.25;9.80;;;10.20;99.90;;;;;;5059799;28;20475;-71
2022/04/06 11:37:57;;;;;;;17.38;8.50;;;10.30;99.90;;;;;;5060014;28;20036;-71
2022/04/06 11:40:25;;;;;;;17.90;9.07;;;10.40;99.90;;;;;;5061764;28;20556;-71
2022/04/06 11:42:52;;;;;;;18.23;9.02;;;10.40;99.90;;;;;;5084574;28;20043;-71
2022/04/06 11:45:22;;;;;;;19.90;8.30;;;10.40;99.90;;;;;;5061441;28;21828;-71
2022/04/06 11:47:52;;;;;;;18.15;8.52;;;10.40;99.90;;;;;;5061573;28;20036;-71
2022/04/06 11:50:18;;;;;;;16.23;8.43;;;10.40;99.90;;;;;;5046889;28;20033;-70
2022/04/06 11:52:44;;;;;;;16.88;9.32;;;10.50;99.90;;;;;;5056608;28;20037;-71
2022/04/06 11:55:09;;;;;;;20.95;8.65;;;10.50;99.90;;;;;;5060932;28;20029;-71
2022/04/06 11:57:37;;;;;;;19.23;9.52;;;10.50;99.90;;;;;;5048566;28;20040;-71
2022/04/06 12:00:05;;;;;;;17.83;8.85;;;10.50;99.90;;;;;;5063058;28;20459;-71
2022/04/06 12:02:53;;;;;;;21.95;9.20;;;10.60;99.90;;;;;;5060524;28;20021;-71
2022/04/06 12:05:20;;;;;;;21.02;9.48;;;10.80;99.90;;;;;;5058369;28;20084;-71
2022/04/06 12:07:47;;;;;;;19.30;9.27;;;11.10;99.90;;;;;;5050398;28;20036;-71
2022/04/06 12:10:14;;;;;;;17.95;8.82;;;11.10;99.90;;;;;;5060845;28;20036;-71
2022/04/06 12:12:41;;;;;;;22.13;9.30;;;11.10;99.90;;;;;;5043323;28;20033;-71
2022/04/06 12:15:09;;;;;;;22.88;8.48;;;11.20;99.90;;;;;;5041673;28;20053;-71
2022/04/06 12:17:36;;;;;;;14.73;7.30;;;11.20;99.90;;;;;;5044381;28;20025;-70
2022/04/06 12:20:24;;;;;;;19.77;8.85;;;11.30;99.90;;;;;;5061803;28;20033;-70
2022/04/06 12:23:03;;;;;;;17.77;8.20;;;11.30;99.90;;;;;;5040070;28;20068;-71
2022/04/06 12:25:34;;;;;;;19.38;8.52;;;11.20;99.90;;;;;;5046242;28;20048;-70
2022/04/06 12:28:19;;;;;;;21.13;8.57;;;11.20;99.90;;;;;;5055012;28;20044;-70
2022/04/06 12:31:05;;;;;;;20.20;8.45;;;11.20;99.90;;;;;;5063797;28;20024;-70
2022/04/06 12:33:49;;;;;;;17.58;8.00;;;11.20;99.90;;;;;;5062554;28;20420;-71
2022/04/06 12:36:27;;;;;;;16.20;8.25;;;11.30;99.90;;;;;;5058632;28;20025;-70
2022/04/06 12:39:02;;;;;;;17.50;7.72;;;11.40;99.90;;;;;;5063940;28;21652;-70
2022/04/06 12:41:32;;;;;;;20.80;8.32;;;11.20;99.90;;;;;;5057809;28;20500;-68
2022/04/06 12:44:00;;;;;;;16.38;7.85;;;11.30;99.90;;;;;;5057034;28;20029;-75
2022/04/06 12:46:42;;;;;;;16.13;7.70;;;11.30;99.90;;;;;;5043140;28;20499;-70
2022/04/06 12:49:41;;;;;;;18.35;8.68;;;11.30;99.90;;;;;;5039970;28;20021;-70
2022/04/06 12:52:10;;;;;;;14.60;7.68;;;11.30;99.90;;;;;;5045470;28;20037;-71
2022/04/06 12:54:37;;;;;;;13.23;7.40;;;11.40;99.90;;;;;;5042637;28;20033;-70
2022/04/06 12:57:17;;;;;;;15.80;8.07;;;11.40;99.90;;;;;;5047890;28;20033;-70